Time;durP1;ratioP1;P1;durP2;ratioP2;P2;SDS_P1;SDS_P2;PMS_P1;PMS_P2;Temp;Humidity;BMP_temperature;BMP_pressure;BME280_temperature;BME280_humidity;BME280_pressure;Samples;Min_cycle;Max_cycle;Signal;HPM_P1;HPM_P2
2022/08/08 00:00:49;;;;;;;;;;;;;;;17.69;47.19;98457.59;4988317;28;19928;-77
2022/08/08 00:03:34;;;;;;;;;;;;;;;17.83;46.54;98462.75;4990427;28;19965;-76
2022/08/08 00:06:06;;;;;;;;;;;;;;;17.78;46.29;98465.72;4972161;28;19957;-76
2022/08/08 00:08:39;;;;;;;;;;;;;;;17.73;46.11;98453.03;4995314;28;19926;-76
2022/08/08 00:11:09;;;;;;;;;;;;;;;17.66;46.62;98454.72;4991869;28;20008;-77
2022/08/08 00:13:40;;;;;;;;;;;;;;;17.75;46.25;98456.25;4978443;28;19928;-76
2022/08/08 00:16:40;;;;;;;;;;;;;;;17.65;46.42;98453.94;4994334;28;19925;-76
2022/08/08 00:19:09;;;;;;;;;;;;;;;17.63;46.09;98453.47;4978319;28;19944;-77
2022/08/08 00:21:39;;;;;;;;;;;;;;;17.55;46.71;98451.63;4994269;28;19929;-77
2022/08/08 00:24:15;;;;;;;;;;;;;;;17.50;46.85;98449.13;4903011;29;19947;-76
2022/08/08 00:26:44;;;;;;;;;;;;;;;17.53;46.99;98449.25;4900050;29;19927;-76
2022/08/08 00:29:15;;;;;;;;;;;;;;;17.51;46.82;98453.47;4890797;29;19954;-77
2022/08/08 00:31:47;;;;;;;;;;;;;;;17.47;46.57;98460.78;4900466;29;19979;-77
2022/08/08 00:40:40;;;;;;;;;;;;;;;17.49;46.70;98453.81;4898030;29;19923;-77
2022/08/08 00:43:46;;;;;;;;;;;;;;;17.50;46.78;98449.13;4978825;28;19921;-77
2022/08/08 00:46:30;;;;;;;;;;;;;;;17.49;46.96;98458.50;4993320;28;20020;-76
2022/08/08 00:49:13;;;;;;;;;;;;;;;17.51;46.76;98456.22;4977552;28;19944;-76
2022/08/08 00:52:07;;;;;;;;;;;;;;;17.37;46.52;98450.28;4988065;28;19930;-76
2022/08/08 00:55:03;;;;;;;;;;;;;;;17.35;46.64;98444.31;4998271;28;19997;-76
2022/08/08 00:57:43;;;;;;;;;;;;;;;17.35;46.73;98441.56;4977027;28;20356;-76
2022/08/08 01:00:16;;;;;;;;;;;;;;;17.49;46.20;98442.03;4996659;28;19921;-76
2022/08/08 01:03:12;;;;;;;;;;;;;;;17.36;46.61;98443.16;4976974;28;19960;-77
2022/08/08 01:06:24;;;;;;;;;;;;;;;17.33;46.52;98438.38;4969578;28;19930;-76
2022/08/08 01:08:59;;;;;;;;;;;;;;;17.33;46.54;98432.88;4974774;28;19964;-76
2022/08/08 01:11:40;;;;;;;;;;;;;;;17.32;46.90;98439.53;4976885;28;20015;-76
2022/08/08 01:14:17;;;;;;;;;;;;;;;17.26;46.89;98445.22;4984804;28;20012;-76
2022/08/08 01:17:03;;;;;;;;;;;;;;;17.20;47.26;98441.09;4883046;29;19923;-77
2022/08/08 01:20:01;;;;;;;;;;;;;;;17.22;47.30;98447.06;4900739;29;19940;-76
2022/08/08 01:22:40;;;;;;;;;;;;;;;17.12;47.67;98443.97;4899503;29;19923;-77
2022/08/08 01:25:25;;;;;;;;;;;;;;;17.05;47.77;98439.03;4882589;29;19927;-76
2022/08/08 01:28:12;;;;;;;;;;;;;;;16.96;48.29;98441.06;4883420;29;19923;-76
2022/08/08 01:31:17;;;;;;;;;;;;;;;16.87;48.92;98452.13;4889164;29;20022;-76
2022/08/08 01:34:24;;;;;;;;;;;;;;;16.82;48.65;98452.34;4916792;28;19927;-76
2022/08/08 01:37:08;;;;;;;;;;;;;;;16.72;49.24;98453.59;4977074;28;19932;-76
2022/08/08 01:39:47;;;;;;;;;;;;;;;16.79;49.16;98453.03;4978847;28;20016;-76
2022/08/08 01:42:20;;;;;;;;;;;;;;;16.77;48.99;98458.84;4973808;28;19973;-76
2022/08/08 01:44:52;;;;;;;;;;;;;;;16.67;49.10;98451.03;4992578;28;20006;-76
2022/08/08 01:47:30;;;;;;;;;;;;;;;16.64;49.25;98451.69;4973305;28;19976;-76
2022/08/08 01:50:33;;;;;;;;;;;;;;;16.78;49.00;98445.97;4975368;28;19922;-76
2022/08/08 01:53:07;;;;;;;;;;;;;;;16.73;49.05;98448.91;4973962;28;19922;-77
2022/08/08 01:55:58;;;;;;;;;;;;;;;16.60;49.39;98445.28;4992069;28;19925;-76
2022/08/08 01:58:48;;;;;;;;;;;;;;;16.60;49.42;98448.03;4985290;28;19921;-78
2022/08/08 02:01:23;;;;;;;;;;;;;;;16.56;49.39;98451.78;4976610;28;19925;-77
2022/08/08 02:04:04;;;;;;;;;;;;;;;16.37;49.79;98447.59;4992356;28;19929;-76
2022/08/08 02:06:50;;;;;;;;;;;;;;;16.32;50.21;98441.53;4973513;28;19925;-76
2022/08/08 02:09:35;;;;;;;;;;;;;;;16.34;50.20;98455.69;4975329;28;19922;-76
2022/08/08 02:12:24;;;;;;;;;;;;;;;16.14;50.81;98451.81;4991970;28;20317;-75
2022/08/08 02:14:58;;;;;;;;;;;;;;;16.21;50.79;98452.91;4986715;28;20033;-76
2022/08/08 02:17:33;;;;;;;;;;;;;;;16.24;50.87;98446.75;4973384;28;20012;-76
2022/08/08 02:20:05;;;;;;;;;;;;;;;16.32;50.57;98447.81;4976412;28;19925;-76
2022/08/08 02:22:38;;;;;;;;;;;;;;;16.03;50.95;98448.66;4976093;28;20020;-76
2022/08/08 02:25:23;;;;;;;;;;;;;;;16.07;50.71;98443.31;4978413;28;19984;-76
2022/08/08 02:28:02;;;;;;;;;;;;;;;16.04;50.85;98450.28;4911098;29;19963;-76
2022/08/08 02:30:38;;;;;;;;;;;;;;;15.85;51.74;98450.72;4914738;29;20058;-76
2022/08/08 02:33:40;;;;;;;;;;;;;;;15.90;51.93;98456.03;4915109;29;19923;-76
2022/08/08 02:36:38;;;;;;;;;;;;;;;15.94;51.55;98445.22;4917654;29;19922;-77
2022/08/08 02:39:18;;;;;;;;;;;;;;;16.00;51.44;98441.13;4916601;29;20291;-76
2022/08/08 02:45:48;;;;;;;;;;;;;;;16.04;51.27;98444.00;4945069;28;19928;-76
2022/08/08 02:48:24;;;;;;;;;;;;;;;16.00;51.37;98441.13;4990366;28;20383;-76
2022/08/08 02:51:11;;;;;;;;;;;;;;;16.01;51.37;98437.25;4976208;28;19925;-76
2022/08/08 02:53:57;;;;;;;;;;;;;;;15.95;51.16;98441.31;4976802;28;19929;-76
2022/08/08 02:56:58;;;;;;;;;;;;;;;15.97;51.35;98441.78;4991970;28;19922;-77
2022/08/08 02:59:51;;;;;;;;;;;;;;;15.80;51.72;98444.66;4975705;28;19921;-76
2022/08/08 03:02:41;;;;;;;;;;;;;;;15.90;51.38;98441.53;4986857;28;20017;-76
2022/08/08 03:05:53;;;;;;;;;;;;;;;15.88;51.15;98446.53;4991339;28;20371;-77
2022/08/08 03:08:43;;;;;;;;;;;;;;;15.82;51.56;98447.84;4987024;28;19933;-76
2022/08/08 03:11:25;;;;;;;;;;;;;;;15.87;51.68;98444.91;4913558;29;20013;-76
2022/08/08 03:14:27;;;;;;;;;;;;;;;15.75;51.61;98447.56;4904281;29;19971;-75
2022/08/08 03:17:18;;;;;;;;;;;;;;;15.63;51.94;98462.00;4916947;29;19930;-76
2022/08/08 03:20:07;;;;;;;;;;;;;;;15.67;51.80;98463.75;4913472;29;19926;-76
2022/08/08 03:22:45;;;;;;;;;;;;;;;15.61;51.87;98464.25;4895378;29;19946;-76
2022/08/08 03:25:13;;;;;;;;;;;;;;;15.55;51.97;98460.06;4914905;29;19958;-76
2022/08/08 03:27:51;;;;;;;;;;;;;;;15.61;51.92;98462.31;4897363;29;19923;-75
2022/08/08 03:30:29;;;;;;;;;;;;;;;15.66;51.92;98466.81;4969316;28;19953;-75
2022/08/08 03:33:17;;;;;;;;;;;;;;;15.63;51.70;98465.53;4976156;28;19922;-75
2022/08/08 03:36:06;;;;;;;;;;;;;;;15.68;51.83;98473.56;4976047;28;19929;-76
2022/08/08 03:38:40;;;;;;;;;;;;;;;15.48;52.11;98468.81;4972500;28;19922;-76
2022/08/08 03:41:31;;;;;;;;;;;;;;;15.55;51.92;98482.78;4972453;28;19953;-76
2022/08/08 03:44:19;;;;;;;;;;;;;;;15.49;52.16;98478.63;4986078;28;20007;-76
2022/08/08 03:46:53;;;;;;;;;;;;;;;15.61;51.83;98486.97;4974451;28;20313;-76
2022/08/08 03:49:25;;;;;;;;;;;;;;;15.54;51.72;98481.16;4971365;28;19921;-76
2022/08/08 03:52:16;;;;;;;;;;;;;;;15.53;52.32;98492.47;4978935;28;19929;-76
2022/08/08 03:54:48;;;;;;;;;;;;;;;15.46;52.05;98487.50;4994889;28;19928;-76
2022/08/08 03:57:30;;;;;;;;;;;;;;;15.47;52.26;98494.59;4977885;28;19921;-75
2022/08/08 04:00:19;;;;;;;;;;;;;;;15.41;52.48;98495.91;4986492;28;19935;-76
2022/08/08 04:02:56;;;;;;;;;;;;;;;15.39;52.86;98492.66;4981588;28;19928;-76
2022/08/08 04:05:25;;;;;;;;;;;;;;;15.36;52.74;98496.09;4989795;28;19929;-76
2022/08/08 04:07:57;;;;;;;;;;;;;;;15.32;52.94;98497.88;4979089;28;19921;-76
2022/08/08 04:10:27;;;;;;;;;;;;;;;15.17;53.50;98505.47;4989376;28;20337;-76
2022/08/08 04:13:02;;;;;;;;;;;;;;;15.07;53.59;98507.75;4994584;28;20388;-76
2022/08/08 04:15:47;;;;;;;;;;;;;;;15.13;53.56;98506.47;4989793;28;19930;-76
2022/08/08 04:18:23;;;;;;;;;;;;;;;15.12;53.68;98507.59;4986972;28;19921;-76
2022/08/08 04:20:52;;;;;;;;;;;;;;;15.11;53.66;98515.00;4978549;28;19970;-76
2022/08/08 04:23:20;;;;;;;;;;;;;;;14.84;54.04;98523.59;4995080;28;20047;-76
2022/08/08 04:25:51;;;;;;;;;;;;;;;14.87;54.45;98525.69;4975647;28;19928;-76
2022/08/08 04:28:19;;;;;;;;;;;;;;;14.95;54.06;98519.38;4984749;28;19925;-76
2022/08/08 04:31:08;;;;;;;;;;;;;;;15.01;54.12;98522.75;4978043;28;20012;-77
2022/08/08 04:33:36;;;;;;;;;;;;;;;15.02;54.29;98527.91;4975122;28;19921;-77
2022/08/08 04:36:09;;;;;;;;;;;;;;;15.09;53.93;98522.75;4980276;28;20384;-77
2022/08/08 04:38:40;;;;;;;;;;;;;;;15.01;54.12;98523.53;4979370;28;19922;-77
2022/08/08 04:41:10;;;;;;;;;;;;;;;15.04;54.10;98533.84;4978225;28;19926;-77
2022/08/08 04:43:45;;;;;;;;;;;;;;;15.02;54.50;98530.66;4978715;28;19937;-77
2022/08/08 04:46:19;;;;;;;;;;;;;;;15.03;55.75;98540.47;4977741;28;20368;-77
2022/08/08 04:48:50;;;;;;;;;;;;;;;15.04;55.78;98535.78;4979322;28;19926;-77
2022/08/08 04:51:20;;;;;;;;;;;;;;;15.07;55.37;98538.66;4973905;28;19949;-77
2022/08/08 04:53:58;;;;;;;;;;;;;;;15.01;55.02;98545.44;4978121;28;19921;-77
2022/08/08 04:56:48;;;;;;;;;;;;;;;14.97;55.42;98539.03;4995817;28;19930;-78
2022/08/08 04:59:16;;;;;;;;;;;;;;;15.00;55.03;98543.84;4990416;28;19929;-79
2022/08/08 05:01:44;;;;;;;;;;;;;;;15.03;54.42;98547.88;4978309;28;19922;-75
2022/08/08 05:04:15;;;;;;;;;;;;;;;15.15;55.32;98554.28;4991996;28;19945;-76
2022/08/08 05:06:44;;;;;;;;;;;;;;;15.26;55.20;98546.50;5003263;28;19929;-74
2022/08/08 05:09:37;;;;;;;;;;;;;;;15.31;54.98;98545.53;5000856;28;19968;-75
2022/08/08 05:12:07;;;;;;;;;;;;;;;15.27;53.80;98547.31;4976823;28;20438;-76
2022/08/08 05:17:30;;;;;;;;;;;;;;;15.46;53.54;98556.75;4915627;29;19990;-73
2022/08/08 05:20:18;;;;;;;;;;;;;;;15.55;53.12;98559.44;4916464;29;19923;-74
2022/08/08 05:22:49;;;;;;;;;;;;;;;15.55;53.22;98564.94;4915458;29;20107;-75
2022/08/08 05:25:17;;;;;;;;;;;;;;;15.59;54.37;98565.88;4917121;29;19923;-74
2022/08/08 05:27:46;;;;;;;;;;;;;;;15.80;52.08;98565.19;4880330;29;20353;-74
2022/08/08 05:30:15;;;;;;;;;;;;;;;15.78;52.78;98570.22;4896312;29;19959;-77
2022/08/08 05:32:46;;;;;;;;;;;;;;;15.84;53.10;98561.47;4899185;29;20405;-75
2022/08/08 05:35:17;;;;;;;;;;;;;;;15.91;52.72;98566.44;4898170;29;20385;-76
2022/08/08 05:37:47;;;;;;;;;;;;;;;15.95;53.78;98568.19;4933487;29;19922;-76
2022/08/08 05:43:16;;;;;;;;;;;;;;;16.04;51.72;98570.09;4933340;29;19966;-75
2022/08/08 05:46:07;;;;;;;;;;;;;;;16.09;51.71;98572.63;4951618;28;19922;-75
2022/08/08 05:48:39;;;;;;;;;;;;;;;16.24;50.57;98578.34;4984158;28;19922;-75
2022/08/08 05:51:12;;;;;;;;;;;;;;;16.42;50.06;98575.50;4994230;28;19926;-75
2022/08/08 05:56:56;;;;;;;;;;;;;;;16.50;50.24;98578.16;4973320;28;20273;-75
2022/08/08 06:05:28;;;;;;;;;;;;;;;16.68;49.35;98589.00;4955234;28;19989;-75
2022/08/08 06:08:04;;;;;;;;;;;;;;;16.53;50.05;98581.38;4945388;28;20436;-76
2022/08/08 06:11:03;;;;;;;;;;;;;;;16.71;49.47;98575.44;4936424;28;19923;-76
2022/08/08 06:13:31;;;;;;;;;;;;;;;16.76;49.71;98571.69;4952411;28;20305;-76
2022/08/08 06:16:07;;;;;;;;;;;;;;;16.88;50.21;98579.97;4951735;28;19922;-76
2022/08/08 06:18:55;;;;;;;;;;;;;;;16.95;49.99;98582.19;4935924;29;19945;-76
2022/08/08 06:21:25;;;;;;;;;;;;;;;17.22;48.57;98576.13;4955767;28;19931;-77
2022/08/08 06:23:55;;;;;;;;;;;;;;;17.22;48.60;98578.06;4954984;28;19929;-77
2022/08/08 06:26:30;;;;;;;;;;;;;;;17.23;49.29;98582.41;4987138;28;20365;-77
2022/08/08 06:29:08;;;;;;;;;;;;;;;17.27;49.01;98584.13;4990868;28;20344;-76
2022/08/08 06:31:58;;;;;;;;;;;;;;;17.34;49.13;98586.31;4970419;28;20381;-76
2022/08/08 06:34:37;;;;;;;;;;;;;;;17.41;49.13;98594.78;4990162;28;20249;-79
2022/08/08 06:37:09;;;;;;;;;;;;;;;17.62;47.73;98594.72;4978454;28;19992;-76
2022/08/08 06:39:37;;;;;;;;;;;;;;;17.84;46.86;98595.47;4974367;28;19922;-75
2022/08/08 06:42:08;;;;;;;;;;;;;;;17.77;48.11;98596.03;4987903;28;19922;-74
2022/08/08 06:44:41;;;;;;;;;;;;;;;17.83;48.04;98589.19;4976241;28;19930;-75
2022/08/08 06:47:11;;;;;;;;;;;;;;;17.94;46.68;98590.31;4975697;28;19922;-74
2022/08/08 06:49:41;;;;;;;;;;;;;;;18.01;47.45;98596.06;4973436;28;19956;-75
2022/08/08 06:52:24;;;;;;;;;;;;;;;18.06;47.04;98597.81;4974681;28;20012;-75
2022/08/08 06:54:57;;;;;;;;;;;;;;;18.35;46.46;98599.50;4974049;28;19936;-74
2022/08/08 06:57:25;;;;;;;;;;;;;;;18.31;46.07;98602.13;4976127;28;19932;-75
2022/08/08 06:59:56;;;;;;;;;;;;;;;18.33;46.35;98605.34;4974753;28;20041;-75
2022/08/08 07:02:39;;;;;;;;;;;;;;;18.41;47.36;98600.06;4989040;28;19961;-78
2022/08/08 07:05:37;;;;;;;;;;;;;;;18.57;45.69;98599.00;4990779;28;19922;-76
2022/08/08 07:08:12;;;;;;;;;;;;;;;18.62;47.14;98603.44;4967879;28;19928;-75
2022/08/08 07:10:50;;;;;;;;;;;;;;;18.79;44.98;98603.19;4978832;28;19921;-76
2022/08/08 07:13:19;;;;;;;;;;;;;;;18.91;45.54;98604.31;4909485;29;20029;-75
2022/08/08 07:19:22;;;;;;;;;;;;;;;19.13;44.79;98594.72;4940736;29;19922;-77
2022/08/08 07:21:54;;;;;;;;;;;;;;;19.28;43.98;98599.44;4926121;29;20010;-76
2022/08/08 07:24:30;;;;;;;;;;;;;;;19.28;44.61;98597.53;4914607;28;19926;-77
2022/08/08 07:27:02;;;;;;;;;;;;;;;19.35;44.55;98603.22;4919631;29;19934;-76
2022/08/08 07:29:32;;;;;;;;;;;;;;;19.43;42.84;98600.66;4895808;29;20719;-76
2022/08/08 07:32:22;;;;;;;;;;;;;;;19.59;42.89;98602.28;4929175;29;19926;-77
2022/08/08 07:34:59;;;;;;;;;;;;;;;19.71;42.33;98601.44;4924222;29;19972;-77
2022/08/08 07:37:59;;;;;;;;;;;;;;;19.73;43.38;98607.38;4934041;29;19922;-78
2022/08/08 07:40:48;;;;;;;;;;;;;;;19.88;44.24;98609.34;4935338;29;19922;-77
2022/08/08 07:43:20;;;;;;;;;;;;;;;20.06;41.55;98607.03;4935744;29;19954;-77
2022/08/08 07:46:03;;;;;;;;;;;;;;;20.15;41.95;98602.13;4941430;29;19938;-78
2022/08/08 07:48:44;;;;;;;;;;;;;;;20.27;40.58;98609.50;4970383;28;20012;-78
2022/08/08 07:51:16;;;;;;;;;;;;;;;20.32;40.25;98616.72;4997913;28;19953;-78
2022/08/08 07:54:16;;;;;;;;;;;;;;;20.50;40.11;98615.16;4982029;28;19926;-78
2022/08/08 07:56:58;;;;;;;;;;;;;;;20.55;39.88;98614.09;4976768;28;20012;-79
2022/08/08 07:59:27;;;;;;;;;;;;;;;20.65;41.00;98608.81;4970807;28;19949;-80
2022/08/08 08:01:57;;;;;;;;;;;;;;;20.69;41.59;98616.38;4987917;28;19921;-79
2022/08/08 08:04:48;;;;;;;;;;;;;;;20.85;40.60;98612.41;4994834;28;19990;-79
2022/08/08 08:07:22;;;;;;;;;;;;;;;21.05;38.97;98615.19;4982505;28;19968;-79
2022/08/08 08:09:59;;;;;;;;;;;;;;;21.11;38.90;98614.53;4978411;28;19922;-78
2022/08/08 08:12:30;;;;;;;;;;;;;;;21.15;39.53;98614.59;4973336;28;19925;-78
2022/08/08 08:15:12;;;;;;;;;;;;;;;21.21;39.61;98618.66;4990340;28;19922;-77
2022/08/08 08:17:44;;;;;;;;;;;;;;;21.25;39.07;98619.53;4977533;28;19921;-77
2022/08/08 08:20:21;;;;;;;;;;;;;;;21.33;38.66;98615.78;5001215;28;20245;-77
2022/08/08 08:22:58;;;;;;;;;;;;;;;21.56;38.21;98623.31;4975991;28;20416;-77
2022/08/08 08:25:27;;;;;;;;;;;;;;;21.64;37.25;98613.97;4977669;28;19922;-77
2022/08/08 08:28:35;;;;;;;;;;;;;;;21.79;37.27;98617.81;4994610;28;19928;-77
2022/08/08 08:31:04;;;;;;;;;;;;;;;21.88;37.47;98615.56;4993045;28;19965;-77
2022/08/08 08:33:37;;;;;;;;;;;;;;;21.93;37.32;98607.75;4964190;28;20291;-77
2022/08/08 08:36:08;;;;;;;;;;;;;;;22.09;36.62;98615.13;4976472;28;20009;-77
2022/08/08 08:38:50;;;;;;;;;;;;;;;22.14;35.82;98612.09;4976599;28;20424;-77
2022/08/08 08:41:32;;;;;;;;;;;;;;;22.22;35.06;98617.38;4977625;28;19964;-81
2022/08/08 08:44:01;;;;;;;;;;;;;;;22.25;34.98;98610.28;4977456;28;19932;-77
2022/08/08 08:46:40;;;;;;;;;;;;;;;22.33;35.01;98614.78;4996628;28;19926;-77
2022/08/08 08:49:17;;;;;;;;;;;;;;;22.44;34.75;98617.69;4980122;28;19926;-77
2022/08/08 08:51:46;;;;;;;;;;;;;;;22.43;34.17;98610.56;4977217;28;20521;-77
2022/08/08 08:54:19;;;;;;;;;;;;;;;22.46;34.80;98612.59;4976718;28;20376;-78
2022/08/08 08:56:52;;;;;;;;;;;;;;;22.65;34.98;98615.25;4971175;28;20431;-74
2022/08/08 08:59:20;;;;;;;;;;;;;;;22.75;34.55;98616.56;4977482;28;20016;-74
2022/08/08 09:02:08;;;;;;;;;;;;;;;22.99;34.01;98615.31;4977421;28;19925;-80
2022/08/08 09:04:36;;;;;;;;;;;;;;;22.88;35.40;98615.19;4993369;28;19921;-77
2022/08/08 09:07:16;;;;;;;;;;;;;;;23.05;32.85;98619.34;4991754;28;19922;-78
2022/08/08 09:09:49;;;;;;;;;;;;;;;23.08;33.21;98609.50;4977711;28;19926;-76
2022/08/08 09:12:26;;;;;;;;;;;;;;;23.12;32.52;98608.38;4912445;29;19929;-77
2022/08/08 09:14:55;;;;;;;;;;;;;;;23.23;32.65;98611.25;4935068;29;19923;-77
2022/08/08 09:17:26;;;;;;;;;;;;;;;23.35;31.86;98616.53;4897055;29;19933;-77
2022/08/08 09:20:32;;;;;;;;;;;;;;;23.33;33.36;98618.09;4923206;29;19934;-75
2022/08/08 09:23:22;;;;;;;;;;;;;;;23.44;30.37;98619.81;4915168;29;19922;-79
2022/08/08 09:25:57;;;;;;;;;;;;;;;23.33;30.35;98613.38;4897357;29;20110;-77
2022/08/08 09:28:31;;;;;;;;;;;;;;;23.45;30.76;98612.31;4929791;29;20099;-77
2022/08/08 09:31:06;;;;;;;;;;;;;;;23.41;30.54;98615.03;4953043;28;19925;-77
2022/08/08 09:33:45;;;;;;;;;;;;;;;23.59;30.13;98619.94;4971111;28;19926;-76
2022/08/08 09:36:35;;;;;;;;;;;;;;;23.69;32.18;98616.53;4972319;28;19923;-77
2022/08/08 09:39:06;;;;;;;;;;;;;;;23.42;30.78;98616.63;4961219;28;20377;-77
2022/08/08 09:41:39;;;;;;;;;;;;;;;23.53;29.85;98608.41;4970595;28;20375;-75
2022/08/08 09:44:29;;;;;;;;;;;;;;;23.53;32.03;98600.88;4953459;28;19926;-77
2022/08/08 09:47:01;;;;;;;;;;;;;;;23.65;29.92;98613.72;4973119;28;19922;-76
2022/08/08 09:49:49;;;;;;;;;;;;;;;23.72;30.93;98607.44;4971151;28;19922;-76
2022/08/08 09:52:19;;;;;;;;;;;;;;;23.72;30.61;98599.91;4959117;28;20274;-76
2022/08/08 09:55:08;;;;;;;;;;;;;;;23.53;30.95;98605.63;4979608;28;19928;-76
2022/08/08 09:57:40;;;;;;;;;;;;;;;23.51;30.96;98600.47;4955566;28;19944;-74
2022/08/08 10:00:14;;;;;;;;;;;;;;;23.59;31.58;98597.75;4958319;28;19978;-73
2022/08/08 10:03:02;;;;;;;;;;;;;;;23.61;34.03;98596.22;4954470;28;19970;-74
2022/08/08 10:05:34;;;;;;;;;;;;;;;23.76;29.90;98586.88;4959016;28;19977;-73
2022/08/08 10:08:02;;;;;;;;;;;;;;;23.73;30.14;98590.41;4978601;28;19929;-75
2022/08/08 10:10:30;;;;;;;;;;;;;;;23.95;30.19;98594.16;4960152;28;19922;-73
2022/08/08 10:13:00;;;;;;;;;;;;;;;23.87;30.88;98583.41;4975906;28;20377;-75
2022/08/08 10:15:41;;;;;;;;;;;;;;;23.87;30.11;98583.41;4970077;28;19922;-74
2022/08/08 10:18:34;;;;;;;;;;;;;;;23.91;30.68;98582.22;4968508;28;19933;-74
2022/08/08 10:21:03;;;;;;;;;;;;;;;23.92;31.83;98583.06;4982811;28;20004;-74
2022/08/08 10:23:52;;;;;;;;;;;;;;;24.01;30.26;98583.50;4973777;28;20016;-73
2022/08/08 10:26:51;;;;;;;;;;;;;;;23.96;29.57;98583.88;4972423;28;19936;-74
2022/08/08 10:29:33;;;;;;;;;;;;;;;23.93;30.48;98582.66;4983738;28;19932;-73
2022/08/08 10:32:34;;;;;;;;;;;;;;;24.07;31.53;98586.72;4985757;28;20297;-75
2022/08/08 10:35:05;;;;;;;;;;;;;;;24.12;29.80;98595.50;4979279;28;19921;-74
2022/08/08 10:37:42;;;;;;;;;;;;;;;24.13;31.82;98579.63;4996983;28;20093;-74
2022/08/08 10:40:14;;;;;;;;;;;;;;;24.23;31.04;98576.94;4989601;28;19957;-75
2022/08/08 10:42:43;;;;;;;;;;;;;;;24.21;32.25;98570.97;4977419;28;19922;-74
2022/08/08 10:45:13;;;;;;;;;;;;;;;24.38;33.48;98574.28;4975365;28;19921;-75
2022/08/08 10:47:43;;;;;;;;;;;;;;;24.44;29.84;98570.75;4985768;28;19922;-75
2022/08/08 10:50:15;;;;;;;;;;;;;;;24.31;29.90;98572.25;4989753;28;19926;-74
2022/08/08 10:52:43;;;;;;;;;;;;;;;24.32;30.35;98576.59;4962800;28;19969;-75
2022/08/08 10:55:13;;;;;;;;;;;;;;;24.37;30.33;98565.16;4973056;28;20365;-75
2022/08/08 10:57:42;;;;;;;;;;;;;;;24.46;29.76;98568.41;4991678;28;20374;-75
2022/08/08 11:00:22;;;;;;;;;;;;;;;24.52;30.34;98568.84;4989796;28;19921;-74
2022/08/08 11:02:54;;;;;;;;;;;;;;;24.55;31.68;98568.84;4973362;28;20297;-75
2022/08/08 11:05:22;;;;;;;;;;;;;;;24.63;29.94;98566.91;4968495;28;19928;-75
2022/08/08 11:07:50;;;;;;;;;;;;;;;24.51;30.58;98558.91;4988507;28;20025;-75
2022/08/08 11:11:04;;;;;;;;;;;;;;;24.61;30.41;98568.47;4992030;28;19997;-74
2022/08/08 11:13:57;;;;;;;;;;;;;;;24.73;29.00;98568.16;4987474;28;20424;-75
2022/08/08 11:16:51;;;;;;;;;;;;;;;24.79;30.61;98566.59;4991725;28;20365;-75
2022/08/08 11:19:18;;;;;;;;;;;;;;;24.71;27.41;98565.75;4994121;28;19969;-75
2022/08/08 11:21:46;;;;;;;;;;;;;;;24.63;28.68;98561.34;4979681;28;20288;-75
2022/08/08 11:24:22;;;;;;;;;;;;;;;24.62;28.97;98553.41;4993047;28;20222;-75
2022/08/08 11:26:50;;;;;;;;;;;;;;;24.52;28.67;98560.50;4991675;28;19921;-74
2022/08/08 11:29:23;;;;;;;;;;;;;;;24.63;27.77;98549.44;4992611;28;19937;-75
2022/08/08 11:32:37;;;;;;;;;;;;;;;24.69;28.07;98557.00;4993494;28;20012;-75
2022/08/08 11:35:06;;;;;;;;;;;;;;;24.86;28.50;98558.28;4989121;28;19952;-75
2022/08/08 11:37:52;;;;;;;;;;;;;;;24.88;29.10;98555.91;4988404;28;19921;-75
2022/08/08 11:40:43;;;;;;;;;;;;;;;24.95;29.14;98544.81;4994243;28;19922;-74
2022/08/08 11:43:40;;;;;;;;;;;;;;;25.02;28.73;98550.38;4989007;28;19985;-74
2022/08/08 11:46:09;;;;;;;;;;;;;;;25.10;28.12;98550.47;4989819;28;19928;-75
2022/08/08 11:48:46;;;;;;;;;;;;;;;25.04;28.85;98547.25;4990787;28;20323;-75
2022/08/08 11:51:14;;;;;;;;;;;;;;;25.05;28.52;98543.25;4992095;28;19984;-75
2022/08/08 11:53:58;;;;;;;;;;;;;;;25.10;27.74;98539.34;4992676;28;19944;-74
2022/08/08 11:56:32;;;;;;;;;;;;;;;25.05;27.33;98532.94;4993881;28;20348;-74
2022/08/08 11:59:08;;;;;;;;;;;;;;;25.05;28.97;98540.47;4981771;28;19929;-74
2022/08/08 12:01:36;;;;;;;;;;;;;;;25.25;27.64;98541.75;4999446;28;19929;-75
2022/08/08 12:04:06;;;;;;;;;;;;;;;25.19;26.63;98532.19;4994507;28;20390;-74
2022/08/08 12:06:36;;;;;;;;;;;;;;;25.22;26.80;98527.84;4982598;28;19928;-75
2022/08/08 12:09:06;;;;;;;;;;;;;;;25.15;27.62;98530.63;4978140;28;19922;-75
2022/08/08 12:11:38;;;;;;;;;;;;;;;25.14;29.31;98532.59;4992203;28;20425;-75
2022/08/08 12:14:09;;;;;;;;;;;;;;;25.11;28.99;98530.59;4995682;28;20304;-75
2022/08/08 12:17:04;;;;;;;;;;;;;;;25.17;31.28;98519.88;4977276;28;19929;-74
2022/08/08 12:19:33;;;;;;;;;;;;;;;25.21;30.05;98524.28;4979150;28;19936;-74
2022/08/08 12:22:18;;;;;;;;;;;;;;;25.20;27.53;98514.34;4980514;28;19929;-74
2022/08/08 12:24:48;;;;;;;;;;;;;;;25.18;30.78;98513.13;5000323;28;19953;-74
2022/08/08 12:27:21;;;;;;;;;;;;;;;25.16;29.88;98521.88;5000823;28;19976;-74
2022/08/08 12:29:56;;;;;;;;;;;;;;;25.15;29.47;98513.94;4988337;28;19922;-74
2022/08/08 12:32:25;;;;;;;;;;;;;;;25.19;27.95;98520.28;4952620;28;19989;-76
2022/08/08 12:35:01;;;;;;;;;;;;;;;25.27;27.41;98522.69;4975389;28;19944;-75
2022/08/08 12:37:42;;;;;;;;;;;;;;;25.18;27.00;98513.13;4975333;28;19926;-74
2022/08/08 12:40:17;;;;;;;;;;;;;;;25.17;28.17;98509.56;4958647;28;20368;-75
2022/08/08 12:42:49;;;;;;;;;;;;;;;25.25;28.59;98502.84;4976118;28;20016;-75
2022/08/08 12:45:17;;;;;;;;;;;;;;;25.43;28.52;98502.06;4959276;28;19922;-75
2022/08/08 12:48:06;;;;;;;;;;;;;;;25.47;29.23;98502.84;4964132;28;19928;-73
2022/08/08 12:50:39;;;;;;;;;;;;;;;25.37;29.22;98504.44;4975269;28;20391;-78
2022/08/08 12:53:29;;;;;;;;;;;;;;;25.55;28.16;98505.22;4972669;28;19956;-75
2022/08/08 12:59:00;;;;;;;;;;;;;;;25.63;28.10;98506.03;4975897;28;19957;-76
2022/08/08 13:01:35;;;;;;;;;;;;;;;25.66;27.75;98508.00;4971606;28;19961;-75
2022/08/08 13:04:14;;;;;;;;;;;;;;;25.52;26.36;98503.25;4962861;28;20262;-75
2022/08/08 13:06:53;;;;;;;;;;;;;;;25.61;27.40;98503.63;4973467;28;19973;-81
2022/08/08 13:09:45;;;;;;;;;;;;;;;25.58;28.09;98504.44;4973513;28;19926;-74
2022/08/08 13:12:34;;;;;;;;;;;;;;;25.66;28.12;98512.78;4963593;28;20016;-76
2022/08/08 13:15:04;;;;;;;;;;;;;;;25.48;26.25;98510.00;4966761;28;19926;-76
2022/08/08 13:17:33;;;;;;;;;;;;;;;25.54;26.22;98505.63;4931509;29;19922;-75
2022/08/08 13:20:22;;;;;;;;;;;;;;;25.49;26.46;98501.25;4925553;29;20017;-76
2022/08/08 13:22:51;;;;;;;;;;;;;;;25.57;26.70;98488.94;4934426;29;19961;-75
2022/08/08 13:25:35;;;;;;;;;;;;;;;25.66;27.33;98484.97;4929238;29;20417;-74
2022/08/08 13:28:05;;;;;;;;;;;;;;;25.70;27.53;98489.34;4914248;29;19953;-75
2022/08/08 13:30:58;;;;;;;;;;;;;;;25.80;28.02;98490.56;4941088;29;19926;-75
2022/08/08 13:33:52;;;;;;;;;;;;;;;25.72;28.68;98478.59;4940351;29;19988;-75
2022/08/08 13:36:24;;;;;;;;;;;;;;;25.82;27.57;98483.38;4960048;28;19926;-75
2022/08/08 13:38:56;;;;;;;;;;;;;;;25.94;26.72;98481.38;4972645;28;20369;-75
2022/08/08 13:41:26;;;;;;;;;;;;;;;25.96;26.69;98473.44;4971368;28;19926;-75
2022/08/08 13:44:05;;;;;;;;;;;;;;;25.96;26.48;98470.66;4973191;28;19922;-75
2022/08/08 13:46:33;;;;;;;;;;;;;;;25.91;28.03;98477.44;4973214;28;20353;-75
2022/08/08 13:49:29;;;;;;;;;;;;;;;25.83;28.20;98475.81;4969060;28;20013;-75
2022/08/08 13:52:21;;;;;;;;;;;;;;;25.97;27.63;98467.47;4971913;28;19930;-75
2022/08/08 13:55:05;;;;;;;;;;;;;;;25.91;27.15;98465.50;4954217;28;19926;-75
2022/08/08 13:57:36;;;;;;;;;;;;;;;25.97;27.14;98470.25;4956873;28;20284;-74
2022/08/08 14:00:24;;;;;;;;;;;;;;;26.08;26.46;98459.88;4969630;28;19929;-77
2022/08/08 14:02:56;;;;;;;;;;;;;;;25.97;26.12;98461.91;4950991;28;19922;-78
2022/08/08 14:05:27;;;;;;;;;;;;;;;25.97;27.44;98458.31;4953620;28;19922;-74
2022/08/08 14:07:55;;;;;;;;;;;;;;;26.05;26.24;98457.13;4956442;28;19973;-75
2022/08/08 14:10:29;;;;;;;;;;;;;;;25.98;26.26;98460.69;4969346;28;19922;-75
2022/08/08 14:13:07;;;;;;;;;;;;;;;26.05;27.62;98451.56;4932197;29;20059;-74
2022/08/08 14:15:51;;;;;;;;;;;;;;;26.07;27.56;98455.53;4932633;29;20366;-75
2022/08/08 14:18:25;;;;;;;;;;;;;;;26.18;26.59;98458.28;4932566;29;19923;-75